createdAt,value
2022-11-29T00:01:44.174Z,-1.48
2022-11-29T00:04:13.037Z,-1.72
2022-11-29T00:06:41.880Z,-1.47
2022-11-29T00:09:13.149Z,-1.22
2022-11-29T00:12:00.708Z,-1.36
2022-11-29T00:14:29.912Z,-1.40
2022-11-29T00:17:02.599Z,-1.57
2022-11-29T00:19:31.621Z,-1.50
2022-11-29T00:22:00.472Z,-1.44
2022-11-29T00:24:31.676Z,-1.32
2022-11-29T00:27:01.324Z,-1.40
2022-11-29T00:29:31.140Z,-1.66
2022-11-29T00:32:01.560Z,-1.61
2022-11-29T00:34:30.540Z,-1.52
2022-11-29T00:36:59.188Z,-1.44
2022-11-29T00:39:28.169Z,-1.49
2022-11-29T00:41:56.873Z,-1.45
2022-11-29T00:44:25.710Z,-1.77
2022-11-29T00:46:54.196Z,-1.74
2022-11-29T00:49:24.223Z,-1.68
2022-11-29T00:51:52.944Z,-1.51
2022-11-29T00:54:21.676Z,-1.42
2022-11-29T00:56:50.346Z,-1.85
2022-11-29T00:59:19.172Z,-1.51
2022-11-29T01:01:47.519Z,-1.66
2022-11-29T01:04:16.325Z,-1.53
2022-11-29T01:06:47.343Z,-1.34
2022-11-29T01:09:16.054Z,-1.61
2022-11-29T01:11:44.851Z,-1.54
2022-11-29T01:14:14.567Z,-1.50
2022-11-29T01:16:42.888Z,-1.39
2022-11-29T01:19:11.793Z,-1.33
2022-11-29T01:21:41.336Z,-1.38
2022-11-29T01:24:11.551Z,-1.30
2022-11-29T01:26:40.255Z,-1.41
2022-11-29T01:29:09.041Z,-1.40
2022-11-29T01:31:37.403Z,-1.60
2022-11-29T01:34:07.672Z,-1.48
2022-11-29T01:36:36.331Z,-1.40
2022-11-29T01:39:06.168Z,-1.64
2022-11-29T01:41:37.949Z,-1.69
2022-11-29T01:44:27.931Z,-1.58
2022-11-29T01:46:56.961Z,-1.72
2022-11-29T01:49:31.945Z,-1.70
2022-11-29T01:52:02.601Z,-1.47
2022-11-29T01:54:31.893Z,-1.43
2022-11-29T01:57:04.659Z,-1.42
2022-11-29T01:59:33.390Z,-1.38
2022-11-29T02:02:06.319Z,-1.46
2022-11-29T02:04:36.350Z,-1.36
2022-11-29T02:07:05.370Z,-1.60
2022-11-29T02:09:34.077Z,-1.54
2022-11-29T02:12:18.911Z,-1.24
2022-11-29T02:15:06.742Z,-1.59
2022-11-29T02:17:42.535Z,-1.54
2022-11-29T02:20:43.038Z,-1.43
2022-11-29T02:23:16.278Z,-1.36
2022-11-29T02:26:00.028Z,-1.30
2022-11-29T02:28:47.010Z,-1.44
2022-11-29T02:31:52.998Z,-1.49
2022-11-29T02:34:50.641Z,-1.49
2022-11-29T02:37:44.210Z,-1.69
2022-11-29T02:40:24.541Z,-1.75
2022-11-29T02:43:01.296Z,-1.42
2022-11-29T02:45:40.035Z,-1.73
2022-11-29T02:48:22.798Z,-1.43
2022-11-29T02:50:56.432Z,-1.58
2022-11-29T02:53:30.960Z,-1.57
2022-11-29T02:56:07.323Z,-1.35
2022-11-29T02:58:39.776Z,-1.33
2022-11-29T03:01:12.289Z,-1.36
2022-11-29T03:03:45.061Z,-1.60
2022-11-29T03:06:23.547Z,-1.42
2022-11-29T03:08:56.090Z,-1.42
2022-11-29T03:11:30.420Z,-1.41
2022-11-29T03:14:08.953Z,-1.46
2022-11-29T03:16:43.501Z,-1.46
2022-11-29T03:19:25.363Z,-1.60
2022-11-29T03:22:03.263Z,-1.31
2022-11-29T03:24:36.975Z,-1.42
2022-11-29T03:27:10.828Z,-1.35
2022-11-29T03:29:41.908Z,-1.34
2022-11-29T03:32:14.056Z,-1.44
2022-11-29T03:34:57.337Z,-1.44
2022-11-29T03:37:33.330Z,-1.53
2022-11-29T03:40:06.938Z,-1.30
2022-11-29T03:42:38.977Z,-1.40
2022-11-29T03:45:12.532Z,-1.40
2022-11-29T03:47:46.560Z,-1.45
2022-11-29T03:50:18.401Z,-1.50
2022-11-29T03:52:51.291Z,-1.65
2022-11-29T03:55:31.107Z,-1.50
2022-11-29T03:58:10.958Z,-1.56
2022-11-29T04:00:56.168Z,-1.45
2022-11-29T04:03:58.839Z,-1.42
2022-11-29T04:06:40.700Z,-1.44
2022-11-29T04:09:45.180Z,-1.45
2022-11-29T04:12:43.598Z,-1.52
2022-11-29T04:15:31.695Z,-1.75
2022-11-29T04:18:31.690Z,-1.57
2022-11-29T04:21:33.445Z,-1.66
2022-11-29T04:24:36.661Z,-2.23
2022-11-29T04:27:32.278Z,-1.64
2022-11-29T04:30:14.772Z,-2.25
2022-11-29T04:33:16.534Z,-1.97
2022-11-29T04:35:59.650Z,-2.17
2022-11-29T04:38:48.822Z,-1.74
2022-11-29T04:41:41.586Z,-2.12
2022-11-29T04:44:29.022Z,-1.90
2022-11-29T04:47:09.508Z,-2.10
2022-11-29T04:50:01.953Z,-2.28
2022-11-29T04:52:44.616Z,-1.84
2022-11-29T04:55:34.622Z,-2.06
2022-11-29T04:58:10.713Z,-1.79
2022-11-29T05:00:46.121Z,-2.10
2022-11-29T05:03:21.905Z,-2.04
2022-11-29T05:05:55.147Z,-1.86
2022-11-29T05:08:31.275Z,-1.93
2022-11-29T05:11:05.666Z,-2.27
2022-11-29T05:13:44.093Z,-2.08
2022-11-29T05:16:34.873Z,-1.84
2022-11-29T05:19:20.290Z,-1.68
2022-11-29T05:21:54.255Z,-1.98
2022-11-29T05:24:32.582Z,-1.87
2022-11-29T05:27:07.447Z,-1.68
2022-11-29T05:29:41.865Z,-1.52
2022-11-29T05:32:29.766Z,-1.62
2022-11-29T05:35:21.915Z,-1.37
2022-11-29T05:37:52.933Z,-1.50
2022-11-29T05:40:46.371Z,-1.36
2022-11-29T05:43:26.488Z,-1.59
2022-11-29T05:46:01.516Z,-1.54
2022-11-29T05:48:36.939Z,-1.44
2022-11-29T05:51:16.903Z,-1.47
2022-11-29T05:53:49.149Z,-1.35
2022-11-29T05:56:25.081Z,-1.51
2022-11-29T05:58:58.226Z,-1.46
2022-11-29T06:01:29.341Z,-1.73
2022-11-29T06:04:09.137Z,-1.44
2022-11-29T06:06:46.127Z,-2.06
2022-11-29T06:09:20.075Z,-1.73
2022-11-29T06:11:50.538Z,-1.87
2022-11-29T06:14:34.067Z,-2.03
2022-11-29T06:17:15.941Z,-1.74
2022-11-29T06:19:55.380Z,-1.89
2022-11-29T06:22:47.568Z,-1.79
2022-11-29T06:25:26.549Z,-1.66
2022-11-29T06:28:06.806Z,-1.85
2022-11-29T06:30:42.891Z,-1.63
2022-11-29T06:33:19.882Z,-1.95
2022-11-29T06:35:53.820Z,-1.79
2022-11-29T06:38:24.226Z,-2.19
2022-11-29T06:40:58.623Z,-1.97
2022-11-29T06:43:30.886Z,-1.98
2022-11-29T06:46:03.050Z,-2.29
2022-11-29T06:48:36.370Z,-2.09
2022-11-29T06:51:09.792Z,-2.08
2022-11-29T06:53:44.462Z,-2.03
2022-11-29T06:56:20.722Z,-1.74
2022-11-29T06:59:00.166Z,-1.78
2022-11-29T07:01:37.245Z,-1.51
2022-11-29T07:04:45.766Z,-1.36
2022-11-29T07:07:21.520Z,-1.99
2022-11-29T07:09:53.027Z,-2.22
2022-11-29T07:12:22.557Z,-2.20
2022-11-29T07:14:51.970Z,-1.77
2022-11-29T07:17:25.986Z,-2.30
2022-11-29T07:20:03.730Z,-1.72
2022-11-29T07:22:47.110Z,-1.45
2022-11-29T07:25:24.938Z,-1.39
2022-11-29T07:27:59.149Z,-1.36
2022-11-29T07:30:31.447Z,-1.90
2022-11-29T07:33:06.602Z,-2.03
2022-11-29T07:35:41.846Z,-1.44
2022-11-29T07:38:18.082Z,-1.95
2022-11-29T07:40:52.674Z,-1.63
2022-11-29T07:43:31.414Z,-2.12
2022-11-29T07:46:01.447Z,-2.12
2022-11-29T07:48:30.141Z,-2.45
2022-11-29T07:50:58.895Z,-1.76
2022-11-29T07:53:29.251Z,-1.84
2022-11-29T07:55:59.346Z,-2.18
2022-11-29T07:58:28.059Z,-1.78
2022-11-29T08:00:56.895Z,-1.51
2022-11-29T08:03:25.658Z,-1.66
2022-11-29T08:05:54.878Z,-1.04
2022-11-29T08:08:23.584Z,-1.35
2022-11-29T08:10:53.282Z,-1.58
2022-11-29T08:13:22.491Z,-1.62
2022-11-29T08:15:51.233Z,-0.88
2022-11-29T08:18:19.940Z,-1.08
2022-11-29T08:20:48.618Z,-0.88
2022-11-29T08:23:17.341Z,-0.85
2022-11-29T08:25:45.975Z,-1.36
2022-11-29T08:28:16.203Z,-1.75
2022-11-29T08:30:44.880Z,-1.15
2022-11-29T08:33:13.619Z,-1.55
2022-11-29T08:35:42.465Z,-1.12
2022-11-29T08:38:11.121Z,-1.44
2022-11-29T08:40:39.528Z,-1.97
2022-11-29T08:43:08.344Z,-1.34
2022-11-29T08:45:38.686Z,-1.18
2022-11-29T08:48:08.181Z,-1.30
2022-11-29T08:50:36.873Z,-1.10
2022-11-29T08:53:22.957Z,-1.13
2022-11-29T08:55:51.254Z,-0.98
2022-11-29T08:58:21.521Z,-0.78
2022-11-29T09:00:51.705Z,-1.00
2022-11-29T09:03:37.880Z,-1.05
2022-11-29T09:06:12.264Z,-1.09
2022-11-29T09:08:43.718Z,-1.04
2022-11-29T09:11:14.416Z,-1.09
2022-11-29T09:13:42.862Z,-2.00
2022-11-29T09:16:15.510Z,-1.52
2022-11-29T09:18:50.063Z,-1.79
2022-11-29T09:21:20.537Z,-1.09
2022-11-29T09:23:49.318Z,-1.00
2022-11-29T09:26:19.969Z,-1.26
2022-11-29T09:28:48.106Z,-0.48
2022-11-29T09:31:18.315Z,-0.94
2022-11-29T09:33:46.838Z,-0.71
2022-11-29T09:36:15.795Z,-1.57
2022-11-29T09:38:44.658Z,-0.65
2022-11-29T09:41:26.332Z,-0.78
2022-11-29T09:44:01.943Z,-1.04
2022-11-29T09:46:40.004Z,-0.79
2022-11-29T09:49:21.866Z,-0.85
2022-11-29T09:51:56.361Z,-0.70
2022-11-29T09:54:36.558Z,-0.95
2022-11-29T09:57:10.524Z,-0.95
2022-11-29T09:59:42.917Z,-0.76
2022-11-29T10:02:21.418Z,-0.36
2022-11-29T10:04:52.574Z,-0.25
2022-11-29T10:07:23.590Z,-0.48
2022-11-29T10:09:55.978Z,0.13
2022-11-29T10:12:30.625Z,-0.65
2022-11-29T10:15:03.843Z,-0.27
2022-11-29T10:17:37.758Z,-0.61
2022-11-29T10:20:12.940Z,0.12
2022-11-29T10:22:45.565Z,0.41
2022-11-29T10:25:21.742Z,0.37
2022-11-29T10:27:50.796Z,-0.18
2022-11-29T10:30:19.920Z,0.17
2022-11-29T10:32:52.607Z,0.55
2022-11-29T10:35:21.827Z,0.78
2022-11-29T10:38:14.675Z,0.54
2022-11-29T10:40:41.457Z,0.83
2022-11-29T10:43:10.280Z,0.47
2022-11-29T10:45:45.937Z,-0.13
2022-11-29T10:48:17.863Z,0.07
2022-11-29T10:50:48.849Z,0.44
2022-11-29T10:53:19.806Z,-0.28
2022-11-29T10:55:51.016Z,-0.64
2022-11-29T10:58:27.912Z,-0.79
2022-11-29T11:00:59.261Z,-0.01
2022-11-29T11:03:36.222Z,-0.64
2022-11-29T11:06:09.684Z,-0.75
2022-11-29T11:08:39.775Z,-0.72
2022-11-29T11:11:08.944Z,-0.12
2022-11-29T11:13:39.344Z,-0.11
2022-11-29T11:16:17.075Z,0.22
2022-11-29T11:18:48.440Z,-0.53
2022-11-29T11:21:19.807Z,-0.30
2022-11-29T11:23:55.311Z,-0.44
2022-11-29T11:26:25.070Z,0.19
2022-11-29T11:28:57.904Z,-0.05
2022-11-29T11:31:38.065Z,0.22
2022-11-29T11:34:34.352Z,-0.26
2022-11-29T11:37:25.143Z,-0.29
2022-11-29T11:39:55.962Z,0.31
2022-11-29T11:42:38.927Z,-0.42
2022-11-29T11:45:31.641Z,0.37
2022-11-29T11:48:03.287Z,0.06
2022-11-29T11:50:35.504Z,0.43
2022-11-29T11:53:06.890Z,-0.04
2022-11-29T11:55:37.918Z,-0.69
2022-11-29T11:58:18.069Z,-0.75
2022-11-29T12:01:05.532Z,-0.94
2022-11-29T12:03:39.712Z,-0.88
2022-11-29T12:06:25.498Z,-0.27
2022-11-29T12:08:57.166Z,-0.87
2022-11-29T12:11:26.675Z,-0.13
2022-11-29T12:13:57.804Z,-0.08
2022-11-29T12:16:30.810Z,0.07
2022-11-29T12:19:02.783Z,0.13
2022-11-29T12:21:37.872Z,0.28
2022-11-29T12:24:15.040Z,0.43
2022-11-29T12:26:59.720Z,0.32
2022-11-29T12:29:30.832Z,0.08
2022-11-29T12:32:06.623Z,-0.26
2022-11-29T12:34:52.491Z,0.02
2022-11-29T12:37:27.005Z,0.07
2022-11-29T12:40:01.123Z,0.24
2022-11-29T12:42:44.339Z,-0.04
2022-11-29T12:45:25.804Z,0.02
2022-11-29T12:48:02.420Z,-0.44
2022-11-29T12:50:37.368Z,-0.17
2022-11-29T12:53:27.050Z,-0.65
2022-11-29T12:56:04.140Z,-0.53
2022-11-29T12:58:41.282Z,-0.13
2022-11-29T13:01:19.847Z,-0.45
2022-11-29T13:03:54.957Z,-0.89
2022-11-29T13:06:28.669Z,-0.66
2022-11-29T13:09:26.567Z,-0.06
2022-11-29T13:11:59.200Z,-0.27
2022-11-29T13:14:42.639Z,-1.31
2022-11-29T13:17:22.989Z,-1.53
2022-11-29T13:19:54.235Z,-1.62
2022-11-29T13:22:33.412Z,-1.71
2022-11-29T13:25:05.882Z,-2.11
2022-11-29T13:27:36.722Z,-1.40
2022-11-29T13:30:06.581Z,-1.35
2022-11-29T13:32:37.259Z,-1.43
2022-11-29T13:35:12.964Z,-1.82
2022-11-29T13:37:50.616Z,-1.47
2022-11-29T13:40:29.805Z,-1.83
2022-11-29T13:43:02.539Z,-1.77
2022-11-29T13:45:36.409Z,-1.43
2022-11-29T13:48:27.864Z,-1.20
2022-11-29T13:50:57.316Z,-1.12
2022-11-29T13:53:29.632Z,-1.00
2022-11-29T13:56:01.877Z,-0.60
2022-11-29T13:58:40.626Z,-0.76
2022-11-29T14:01:10.206Z,-0.73
2022-11-29T14:03:41.120Z,-0.65
2022-11-29T14:06:12.603Z,-0.77
2022-11-29T14:09:17.421Z,-0.87
2022-11-29T14:11:37.932Z,-0.55
2022-11-29T14:14:09.037Z,-0.59
2022-11-29T14:16:40.699Z,-0.35
2022-11-29T14:19:32.867Z,-0.65
2022-11-29T14:22:26.208Z,-0.48
2022-11-29T14:25:42.897Z,-1.02
2022-11-29T14:28:05.386Z,-1.44
2022-11-29T14:30:47.697Z,-1.42
2022-11-29T14:33:28.261Z,-1.25
2022-11-29T14:36:08.777Z,-1.48
2022-11-29T14:38:43.208Z,-1.03
2022-11-29T14:41:21.364Z,-0.95
2022-11-29T14:43:51.223Z,-0.79
2022-11-29T14:46:29.403Z,-1.10
2022-11-29T14:49:01.131Z,-0.90
2022-11-29T14:51:32.092Z,-0.57
2022-11-29T14:54:07.676Z,-0.55
2022-11-29T14:56:39.146Z,-0.45
2022-11-29T14:59:42.661Z,-0.35
2022-11-29T15:02:25.025Z,-0.80
2022-11-29T15:04:56.286Z,-0.83
2022-11-29T15:07:29.331Z,-1.65
2022-11-29T15:10:01.053Z,-1.06
2022-11-29T15:12:35.062Z,-0.72
2022-11-29T15:15:12.568Z,-0.96
2022-11-29T15:17:49.206Z,-0.79
2022-11-29T15:20:42.502Z,-0.84
2022-11-29T15:23:13.044Z,-0.92
2022-11-29T15:25:48.665Z,-1.25
2022-11-29T15:28:22.899Z,-1.41
2022-11-29T15:31:02.898Z,-1.59
2022-11-29T15:33:31.697Z,-1.44
2022-11-29T15:36:06.668Z,-1.36
2022-11-29T15:38:43.272Z,-1.12
2022-11-29T15:41:21.049Z,-1.13
2022-11-29T15:43:53.363Z,-1.55
2022-11-29T15:46:26.928Z,-0.79
2022-11-29T15:48:55.821Z,-0.92
2022-11-29T15:51:29.787Z,-0.76
2022-11-29T15:54:12.127Z,-0.62
2022-11-29T15:56:45.714Z,-1.07
2022-11-29T15:59:18.318Z,-1.18
2022-11-29T16:01:51.479Z,-1.37
2022-11-29T16:04:21.823Z,-1.09
2022-11-29T16:06:51.857Z,-1.69
2022-11-29T16:09:22.676Z,-1.30
2022-11-29T16:11:51.573Z,-1.22
2022-11-29T16:14:23.400Z,-1.82
2022-11-29T16:16:55.610Z,-0.90
2022-11-29T16:19:32.090Z,-0.80
2022-11-29T16:22:22.432Z,-0.87
2022-11-29T16:24:55.095Z,-1.02
2022-11-29T16:27:24.531Z,-0.84
2022-11-29T16:29:55.141Z,-1.72
2022-11-29T16:32:28.641Z,-0.91
2022-11-29T16:34:57.911Z,-0.86
2022-11-29T16:37:28.165Z,-1.23
2022-11-29T16:40:00.013Z,-0.98
2022-11-29T16:42:30.161Z,-1.50
2022-11-29T16:45:24.317Z,-0.74
2022-11-29T16:47:58.951Z,-0.99
2022-11-29T16:50:29.042Z,-1.25
2022-11-29T16:52:59.234Z,-1.43
2022-11-29T16:55:27.914Z,-1.44
2022-11-29T16:57:56.671Z,-1.15
2022-11-29T17:00:31.532Z,-1.02
2022-11-29T17:03:01.624Z,-1.45
2022-11-29T17:05:30.386Z,-1.08
2022-11-29T17:07:59.067Z,-0.82
2022-11-29T17:10:28.981Z,-0.84
2022-11-29T17:12:57.639Z,-1.20
2022-11-29T17:15:26.238Z,-0.76
2022-11-29T17:17:54.913Z,-0.98
2022-11-29T17:20:25.005Z,-1.20
2022-11-29T17:22:53.364Z,-1.43
2022-11-29T17:25:22.006Z,-1.35
2022-11-29T17:27:50.740Z,-1.21
2022-11-29T17:30:19.760Z,-1.50
2022-11-29T17:32:48.514Z,-1.22
2022-11-29T17:35:17.266Z,-1.02
2022-11-29T17:37:46.955Z,-1.02
2022-11-29T17:40:16.171Z,-1.74
2022-11-29T17:42:44.917Z,-1.59
2022-11-29T17:45:13.515Z,-1.75
2022-11-29T17:47:42.346Z,-1.94
2022-11-29T17:50:12.193Z,-1.35
2022-11-29T17:52:40.660Z,-1.75
2022-11-29T17:55:11.456Z,-1.09
2022-11-29T17:57:40.125Z,-1.57
2022-11-29T18:00:12.963Z,-1.84
2022-11-29T18:02:41.748Z,-1.28
2022-11-29T18:05:10.881Z,-1.27
2022-11-29T18:07:58.053Z,-1.50
2022-11-29T18:10:29.411Z,-1.13
2022-11-29T18:12:58.239Z,-1.64
2022-11-29T18:15:26.929Z,-1.53
2022-11-29T18:17:55.617Z,-1.47
2022-11-29T18:20:24.318Z,-1.76
2022-11-29T18:22:53.419Z,-1.03
2022-11-29T18:25:39.564Z,-1.30
2022-11-29T18:28:11.470Z,-1.71
2022-11-29T18:30:40.177Z,-1.40
2022-11-29T18:33:08.907Z,-1.87
2022-11-29T18:35:37.530Z,-1.48
2022-11-29T18:38:15.266Z,-1.27
2022-11-29T18:40:45.785Z,-1.43
2022-11-29T18:43:17.176Z,-0.77
2022-11-29T18:45:45.899Z,-1.22
2022-11-29T18:48:14.645Z,-1.47
2022-11-29T18:50:43.335Z,-1.00
2022-11-29T18:53:12.181Z,-1.61
2022-11-29T18:55:40.562Z,-1.53
2022-11-29T18:58:09.211Z,-1.22
2022-11-29T19:00:39.313Z,-1.30
2022-11-29T19:03:08.094Z,-1.68
2022-11-29T19:05:36.787Z,-1.55
2022-11-29T19:08:05.723Z,-1.32
2022-11-29T19:10:34.056Z,-1.03
2022-11-29T19:13:02.942Z,-1.20
2022-11-29T19:15:31.729Z,-1.51
2022-11-29T19:18:01.857Z,-0.92
2022-11-29T19:20:34.123Z,-1.01
2022-11-29T19:23:03.069Z,-0.99
2022-11-29T19:25:31.311Z,-1.03
2022-11-29T19:28:00.186Z,-0.89
2022-11-29T19:30:28.919Z,-0.75
2022-11-29T19:32:57.545Z,-0.92
2022-11-29T19:35:27.607Z,-1.13
2022-11-29T19:37:55.953Z,-1.18
2022-11-29T19:40:24.578Z,-1.88
2022-11-29T19:42:53.279Z,-1.14
2022-11-29T19:45:22.654Z,-0.79
2022-11-29T19:47:51.371Z,-0.88
2022-11-29T19:50:20.127Z,-0.95
2022-11-29T19:52:50.108Z,-1.21
2022-11-29T19:55:18.953Z,-0.76
2022-11-29T19:57:47.621Z,-0.66
2022-11-29T20:00:17.390Z,-0.83
2022-11-29T20:02:46.210Z,-0.81
2022-11-29T20:05:15.447Z,-0.71
2022-11-29T20:07:43.931Z,-1.32
2022-11-29T20:10:14.238Z,-1.24
2022-11-29T20:12:42.921Z,-1.06
2022-11-29T20:15:11.977Z,-1.04
2022-11-29T20:17:41.041Z,-1.45
2022-11-29T20:20:11.296Z,-1.34
2022-11-29T20:22:39.677Z,-1.34
2022-11-29T20:25:08.853Z,-1.55
2022-11-29T20:27:38.816Z,-1.38
2022-11-29T20:30:10.494Z,-1.53
2022-11-29T20:32:39.543Z,-1.57
2022-11-29T20:35:10.178Z,-2.03
2022-11-29T20:37:54.454Z,-1.79
2022-11-29T20:40:26.198Z,-1.55
2022-11-29T20:43:04.932Z,-1.75
2022-11-29T20:45:34.312Z,-1.35
2022-11-29T20:48:09.422Z,-1.54
2022-11-29T20:50:38.677Z,-1.91
2022-11-29T20:53:16.891Z,-1.44
2022-11-29T20:55:48.239Z,-1.52
2022-11-29T20:58:19.728Z,-1.45
2022-11-29T21:00:48.927Z,-1.07
2022-11-29T21:03:18.232Z,-1.14
2022-11-29T21:05:47.415Z,-1.37
2022-11-29T21:08:17.604Z,-1.56
2022-11-29T21:10:46.777Z,-1.01
2022-11-29T21:13:16.400Z,-1.14
2022-11-29T21:15:47.418Z,-1.31
2022-11-29T21:18:23.044Z,-0.80
2022-11-29T21:21:03.349Z,-0.90
2022-11-29T21:23:34.830Z,-0.92
2022-11-29T21:26:07.622Z,-1.70
2022-11-29T21:28:40.140Z,-1.12
2022-11-29T21:31:13.376Z,-1.07
2022-11-29T21:33:42.983Z,-0.97
2022-11-29T21:36:11.972Z,-1.88
2022-11-29T21:38:41.302Z,-1.08
2022-11-29T21:41:09.928Z,-1.24
2022-11-29T21:44:09.022Z,-1.89
2022-11-29T21:46:30.634Z,-1.40
2022-11-29T21:48:59.314Z,-1.47
2022-11-29T21:51:27.982Z,-1.42
2022-11-29T21:53:56.587Z,-1.59
2022-11-29T21:56:25.217Z,-2.21
2022-11-29T21:58:53.591Z,-1.64
2022-11-29T22:01:22.606Z,-1.89
2022-11-29T22:03:53.518Z,-1.42
2022-11-29T22:06:24.386Z,-1.35
2022-11-29T22:08:53.485Z,-2.35
2022-11-29T22:11:31.856Z,-1.37
2022-11-29T22:14:16.362Z,-1.62
2022-11-29T22:16:49.559Z,-1.66
2022-11-29T22:19:21.054Z,-1.90
2022-11-29T22:21:50.824Z,-1.41
2022-11-29T22:24:21.232Z,-2.07
2022-11-29T22:26:50.424Z,-1.59
2022-11-29T22:29:19.200Z,-1.46
2022-11-29T22:31:49.586Z,-1.40
2022-11-29T22:34:20.070Z,-1.06
2022-11-29T22:36:48.721Z,-1.69
2022-11-29T22:39:17.398Z,-1.68
2022-11-29T22:41:52.305Z,-2.12
2022-11-29T22:44:22.843Z,-1.67
2022-11-29T22:46:51.343Z,-1.82
2022-11-29T22:49:21.494Z,-1.78
2022-11-29T22:51:50.090Z,-1.21
2022-11-29T22:54:18.918Z,-1.82
2022-11-29T22:56:48.263Z,-1.36
2022-11-29T22:59:17.072Z,-1.69
2022-11-29T23:01:45.799Z,-1.58
2022-11-29T23:04:14.963Z,-1.94
2022-11-29T23:06:46.195Z,-1.43
2022-11-29T23:09:16.841Z,-1.01
2022-11-29T23:11:46.275Z,-1.04
2022-11-29T23:14:15.220Z,-1.02
2022-11-29T23:16:43.507Z,-0.99
2022-11-29T23:19:12.329Z,-0.89
2022-11-29T23:21:41.963Z,-1.29
2022-11-29T23:24:12.288Z,-1.04
2022-11-29T23:26:42.233Z,-1.01
2022-11-29T23:29:12.458Z,-1.07
2022-11-29T23:31:40.800Z,-0.81
2022-11-29T23:34:09.582Z,-0.87
2022-11-29T23:36:38.277Z,-1.15
2022-11-29T23:39:07.613Z,-0.86
2022-11-29T23:41:37.951Z,-0.87
2022-11-29T23:44:06.536Z,-0.74
2022-11-29T23:46:36.839Z,-0.80
2022-11-29T23:49:05.487Z,-1.03
2022-11-29T23:51:34.129Z,-0.89
2022-11-29T23:54:02.794Z,-1.61
2022-11-29T23:56:35.625Z,-1.54
2022-11-29T23:59:06.001Z,-2.11
